sensor_id;sensor_type;location;lat;lon;timestamp;temperature;humidity
29775;DHT22;16676;51.202;6.774;2023-04-16T00:03:32;19.00;70.40
29775;DHT22;16676;51.202;6.774;2023-04-16T00:07:35;19.00;70.30
29775;DHT22;16676;51.202;6.774;2023-04-16T00:11:37;19.00;71.00
29775;DHT22;16676;51.202;6.774;2023-04-16T00:15:39;19.00;70.70
29775;DHT22;16676;51.202;6.774;2023-04-16T00:19:41;19.00;70.60
29775;DHT22;16676;51.202;6.774;2023-04-16T00:23:45;19.00;70.50
29775;DHT22;16676;51.202;6.774;2023-04-16T00:27:46;19.00;70.30
29775;DHT22;16676;51.202;6.774;2023-04-16T00:31:48;19.00;70.30
29775;DHT22;16676;51.202;6.774;2023-04-16T00:35:50;19.00;70.20
29775;DHT22;16676;51.202;6.774;2023-04-16T00:39:53;19.00;70.30
29775;DHT22;16676;51.202;6.774;2023-04-16T00:43:55;19.00;70.40
29775;DHT22;16676;51.202;6.774;2023-04-16T00:47:57;18.90;70.40
29775;DHT22;16676;51.202;6.774;2023-04-16T00:52:00;18.90;70.40
29775;DHT22;16676;51.202;6.774;2023-04-16T00:56:06;19.00;70.30
29775;DHT22;16676;51.202;6.774;2023-04-16T01:00:08;18.90;70.50
29775;DHT22;16676;51.202;6.774;2023-04-16T01:04:10;18.90;70.50
29775;DHT22;16676;51.202;6.774;2023-04-16T01:08:15;18.90;70.20
29775;DHT22;16676;51.202;6.774;2023-04-16T01:12:19;18.90;70.20
29775;DHT22;16676;51.202;6.774;2023-04-16T01:16:21;18.90;70.60
29775;DHT22;16676;51.202;6.774;2023-04-16T01:20:24;18.90;70.50
29775;DHT22;16676;51.202;6.774;2023-04-16T01:24:27;18.90;70.00
29775;DHT22;16676;51.202;6.774;2023-04-16T01:28:29;18.90;70.30
29775;DHT22;16676;51.202;6.774;2023-04-16T01:32:31;18.90;70.20
29775;DHT22;16676;51.202;6.774;2023-04-16T01:36:33;18.90;70.50
29775;DHT22;16676;51.202;6.774;2023-04-16T01:40:37;18.90;70.10
29775;DHT22;16676;51.202;6.774;2023-04-16T01:44:38;18.90;70.60
29775;DHT22;16676;51.202;6.774;2023-04-16T01:48:41;18.90;70.40
29775;DHT22;16676;51.202;6.774;2023-04-16T01:52:43;18.90;70.40
29775;DHT22;16676;51.202;6.774;2023-04-16T01:56:46;18.90;70.40
29775;DHT22;16676;51.202;6.774;2023-04-16T02:00:48;18.80;70.10
29775;DHT22;16676;51.202;6.774;2023-04-16T02:04:50;18.80;70.40
29775;DHT22;16676;51.202;6.774;2023-04-16T02:08:52;18.80;70.40
29775;DHT22;16676;51.202;6.774;2023-04-16T02:12:55;18.80;70.20
29775;DHT22;16676;51.202;6.774;2023-04-16T02:16:57;18.80;70.70
29775;DHT22;16676;51.202;6.774;2023-04-16T02:20:59;18.80;70.60
29775;DHT22;16676;51.202;6.774;2023-04-16T02:25:02;18.80;70.30
29775;DHT22;16676;51.202;6.774;2023-04-16T02:29:05;18.80;70.50
29775;DHT22;16676;51.202;6.774;2023-04-16T02:33:09;18.80;70.20
29775;DHT22;16676;51.202;6.774;2023-04-16T02:37:11;18.80;70.40
29775;DHT22;16676;51.202;6.774;2023-04-16T02:41:14;18.80;70.50
29775;DHT22;16676;51.202;6.774;2023-04-16T02:45:18;18.80;70.10
29775;DHT22;16676;51.202;6.774;2023-04-16T02:49:20;18.80;70.30
29775;DHT22;16676;51.202;6.774;2023-04-16T02:53:22;18.80;70.10
29775;DHT22;16676;51.202;6.774;2023-04-16T02:57:24;18.80;70.30
29775;DHT22;16676;51.202;6.774;2023-04-16T03:01:27;18.70;70.10
29775;DHT22;16676;51.202;6.774;2023-04-16T03:05:29;18.70;70.00
29775;DHT22;16676;51.202;6.774;2023-04-16T03:09:31;18.70;70.10
29775;DHT22;16676;51.202;6.774;2023-04-16T03:13:34;18.70;69.90
29775;DHT22;16676;51.202;6.774;2023-04-16T03:17:37;18.80;70.10
29775;DHT22;16676;51.202;6.774;2023-04-16T03:21:39;18.70;69.90
29775;DHT22;16676;51.202;6.774;2023-04-16T03:25:41;18.70;69.90
29775;DHT22;16676;51.202;6.774;2023-04-16T03:29:46;18.70;69.90
29775;DHT22;16676;51.202;6.774;2023-04-16T03:33:49;18.70;69.90
29775;DHT22;16676;51.202;6.774;2023-04-16T03:37:51;18.70;70.00
29775;DHT22;16676;51.202;6.774;2023-04-16T03:41:53;18.70;70.10
29775;DHT22;16676;51.202;6.774;2023-04-16T03:45:55;18.70;70.00
29775;DHT22;16676;51.202;6.774;2023-04-16T03:49:58;18.70;70.10
29775;DHT22;16676;51.202;6.774;2023-04-16T03:54:00;18.70;69.80
29775;DHT22;16676;51.202;6.774;2023-04-16T03:58:02;18.70;70.20
29775;DHT22;16676;51.202;6.774;2023-04-16T04:02:04;18.70;70.80
29775;DHT22;16676;51.202;6.774;2023-04-16T04:06:08;18.70;70.10
29775;DHT22;16676;51.202;6.774;2023-04-16T04:10:10;18.60;70.10
29775;DHT22;16676;51.202;6.774;2023-04-16T04:14:12;18.70;70.00
29775;DHT22;16676;51.202;6.774;2023-04-16T04:18:14;18.70;70.00
29775;DHT22;16676;51.202;6.774;2023-04-16T04:22:17;18.70;70.10
29775;DHT22;16676;51.202;6.774;2023-04-16T04:26:19;18.70;69.90
29775;DHT22;16676;51.202;6.774;2023-04-16T04:30:21;18.60;70.10
29775;DHT22;16676;51.202;6.774;2023-04-16T04:34:23;18.70;70.00
29775;DHT22;16676;51.202;6.774;2023-04-16T04:38:26;18.60;70.10
29775;DHT22;16676;51.202;6.774;2023-04-16T04:42:28;18.60;70.20
29775;DHT22;16676;51.202;6.774;2023-04-16T04:46:30;18.60;70.00
29775;DHT22;16676;51.202;6.774;2023-04-16T04:50:32;18.60;70.00
29775;DHT22;16676;51.202;6.774;2023-04-16T04:54:35;18.60;70.00
29775;DHT22;16676;51.202;6.774;2023-04-16T04:58:41;18.60;70.00
29775;DHT22;16676;51.202;6.774;2023-04-16T05:02:43;18.60;69.90
29775;DHT22;16676;51.202;6.774;2023-04-16T05:06:44;18.60;70.00
29775;DHT22;16676;51.202;6.774;2023-04-16T05:10:48;18.60;69.70
29775;DHT22;16676;51.202;6.774;2023-04-16T05:14:50;18.60;69.80
29775;DHT22;16676;51.202;6.774;2023-04-16T05:18:52;18.60;69.70
29775;DHT22;16676;51.202;6.774;2023-04-16T05:22:55;18.60;69.60
29775;DHT22;16676;51.202;6.774;2023-04-16T05:26:58;18.60;69.70
29775;DHT22;16676;51.202;6.774;2023-04-16T05:31:01;18.60;69.90
29775;DHT22;16676;51.202;6.774;2023-04-16T05:35:03;18.60;69.60
29775;DHT22;16676;51.202;6.774;2023-04-16T05:39:05;18.60;69.60
29775;DHT22;16676;51.202;6.774;2023-04-16T05:43:09;18.60;69.70
29775;DHT22;16676;51.202;6.774;2023-04-16T05:47:11;18.60;69.70
29775;DHT22;16676;51.202;6.774;2023-04-16T05:51:12;18.60;69.80
29775;DHT22;16676;51.202;6.774;2023-04-16T05:55:14;18.60;69.90
29775;DHT22;16676;51.202;6.774;2023-04-16T05:59:18;18.50;69.70
29775;DHT22;16676;51.202;6.774;2023-04-16T06:03:20;18.60;69.90
29775;DHT22;16676;51.202;6.774;2023-04-16T06:07:21;18.50;69.80
29775;DHT22;16676;51.202;6.774;2023-04-16T06:11:23;18.50;69.90
29775;DHT22;16676;51.202;6.774;2023-04-16T06:15:28;18.50;69.90
29775;DHT22;16676;51.202;6.774;2023-04-16T06:19:30;18.50;70.00
29775;DHT22;16676;51.202;6.774;2023-04-16T06:23:32;18.50;69.80
29775;DHT22;16676;51.202;6.774;2023-04-16T06:27:34;18.50;69.70
29775;DHT22;16676;51.202;6.774;2023-04-16T06:31:38;18.50;69.80
29775;DHT22;16676;51.202;6.774;2023-04-16T06:35:40;18.50;70.00
29775;DHT22;16676;51.202;6.774;2023-04-16T06:39:42;18.50;69.80
29775;DHT22;16676;51.202;6.774;2023-04-16T06:43:44;18.50;69.80
29775;DHT22;16676;51.202;6.774;2023-04-16T06:47:47;18.50;70.40
29775;DHT22;16676;51.202;6.774;2023-04-16T06:51:50;18.50;69.70
29775;DHT22;16676;51.202;6.774;2023-04-16T06:55:52;18.50;69.80
29775;DHT22;16676;51.202;6.774;2023-04-16T06:59:54;18.50;69.70
29775;DHT22;16676;51.202;6.774;2023-04-16T07:03:57;18.50;69.60
29775;DHT22;16676;51.202;6.774;2023-04-16T07:07:59;18.50;69.40
29775;DHT22;16676;51.202;6.774;2023-04-16T07:12:01;18.50;69.60
29775;DHT22;16676;51.202;6.774;2023-04-16T07:16:04;18.50;69.50
29775;DHT22;16676;51.202;6.774;2023-04-16T07:20:08;18.50;69.50
29775;DHT22;16676;51.202;6.774;2023-04-16T07:24:10;18.50;69.50
29775;DHT22;16676;51.202;6.774;2023-04-16T07:28:12;18.50;69.30
29775;DHT22;16676;51.202;6.774;2023-04-16T07:32:16;18.50;69.30
29775;DHT22;16676;51.202;6.774;2023-04-16T07:36:19;18.50;69.40
29775;DHT22;16676;51.202;6.774;2023-04-16T07:40:22;18.50;69.30
29775;DHT22;16676;51.202;6.774;2023-04-16T07:44:25;18.50;69.30
29775;DHT22;16676;51.202;6.774;2023-04-16T07:48:27;18.50;69.30
29775;DHT22;16676;51.202;6.774;2023-04-16T07:52:30;18.50;69.30
29775;DHT22;16676;51.202;6.774;2023-04-16T07:56:32;18.50;69.10
29775;DHT22;16676;51.202;6.774;2023-04-16T08:00:34;18.50;69.30
29775;DHT22;16676;51.202;6.774;2023-04-16T08:04:36;18.50;69.30
29775;DHT22;16676;51.202;6.774;2023-04-16T08:08:40;18.50;69.20
29775;DHT22;16676;51.202;6.774;2023-04-16T08:12:42;18.50;69.20
29775;DHT22;16676;51.202;6.774;2023-04-16T08:16:44;18.50;68.70
29775;DHT22;16676;51.202;6.774;2023-04-16T08:20:46;18.50;68.60
29775;DHT22;16676;51.202;6.774;2023-04-16T08:24:49;18.50;68.20
29775;DHT22;16676;51.202;6.774;2023-04-16T08:28:51;18.40;67.80
29775;DHT22;16676;51.202;6.774;2023-04-16T08:32:53;18.40;67.40
29775;DHT22;16676;51.202;6.774;2023-04-16T08:36:55;18.40;66.90
29775;DHT22;16676;51.202;6.774;2023-04-16T08:41:00;18.40;67.00
29775;DHT22;16676;51.202;6.774;2023-04-16T08:45:06;18.40;66.80
29775;DHT22;16676;51.202;6.774;2023-04-16T08:49:14;18.40;66.70
29775;DHT22;16676;51.202;6.774;2023-04-16T08:53:17;18.40;66.50
29775;DHT22;16676;51.202;6.774;2023-04-16T08:57:28;18.40;66.40
29775;DHT22;16676;51.202;6.774;2023-04-16T09:01:31;18.40;65.80
29775;DHT22;16676;51.202;6.774;2023-04-16T09:05:33;18.40;65.40
29775;DHT22;16676;51.202;6.774;2023-04-16T09:09:37;18.40;65.00
29775;DHT22;16676;51.202;6.774;2023-04-16T09:13:40;18.40;64.80
29775;DHT22;16676;51.202;6.774;2023-04-16T09:17:42;18.40;64.80
29775;DHT22;16676;51.202;6.774;2023-04-16T09:21:46;18.40;64.50
29775;DHT22;16676;51.202;6.774;2023-04-16T09:25:48;18.40;64.60
29775;DHT22;16676;51.202;6.774;2023-04-16T09:29:51;18.40;64.60
29775;DHT22;16676;51.202;6.774;2023-04-16T09:34:03;18.50;64.60
29775;DHT22;16676;51.202;6.774;2023-04-16T09:38:05;18.40;64.60
29775;DHT22;16676;51.202;6.774;2023-04-16T09:42:07;18.40;64.80
29775;DHT22;16676;51.202;6.774;2023-04-16T09:46:11;18.40;64.70
29775;DHT22;16676;51.202;6.774;2023-04-16T09:50:14;18.50;65.40
29775;DHT22;16676;51.202;6.774;2023-04-16T09:54:18;18.50;65.40
29775;DHT22;16676;51.202;6.774;2023-04-16T09:58:22;18.60;65.60
29775;DHT22;16676;51.202;6.774;2023-04-16T10:02:27;18.60;65.30
29775;DHT22;16676;51.202;6.774;2023-04-16T10:06:29;18.60;65.40
29775;DHT22;16676;51.202;6.774;2023-04-16T10:10:31;18.70;65.10
29775;DHT22;16676;51.202;6.774;2023-04-16T10:14:33;18.70;65.30
29775;DHT22;16676;51.202;6.774;2023-04-16T10:18:38;18.70;65.20
29775;DHT22;16676;51.202;6.774;2023-04-16T10:22:41;18.70;65.50
29775;DHT22;16676;51.202;6.774;2023-04-16T10:26:43;18.70;66.40
29775;DHT22;16676;51.202;6.774;2023-04-16T10:30:47;18.70;66.20
29775;DHT22;16676;51.202;6.774;2023-04-16T10:34:54;18.70;66.20
29775;DHT22;16676;51.202;6.774;2023-04-16T10:38:57;18.60;66.70
29775;DHT22;16676;51.202;6.774;2023-04-16T10:43:00;18.70;65.90
29775;DHT22;16676;51.202;6.774;2023-04-16T10:47:02;18.70;66.20
29775;DHT22;16676;51.202;6.774;2023-04-16T10:51:23;18.80;66.30
29775;DHT22;16676;51.202;6.774;2023-04-16T10:55:25;18.80;66.40
29775;DHT22;16676;51.202;6.774;2023-04-16T10:59:30;18.80;66.60
29775;DHT22;16676;51.202;6.774;2023-04-16T11:03:32;18.80;66.60
29775;DHT22;16676;51.202;6.774;2023-04-16T11:07:36;18.80;66.70
29775;DHT22;16676;51.202;6.774;2023-04-16T11:11:39;18.80;67.10
29775;DHT22;16676;51.202;6.774;2023-04-16T11:15:41;18.80;67.80
29775;DHT22;16676;51.202;6.774;2023-04-16T11:19:43;18.80;68.90
29775;DHT22;16676;51.202;6.774;2023-04-16T11:23:47;18.80;70.00
29775;DHT22;16676;51.202;6.774;2023-04-16T11:27:50;18.80;71.90
29775;DHT22;16676;51.202;6.774;2023-04-16T11:31:53;18.80;72.20
29775;DHT22;16676;51.202;6.774;2023-04-16T11:35:55;18.90;72.40
29775;DHT22;16676;51.202;6.774;2023-04-16T11:40:00;18.90;71.40
29775;DHT22;16676;51.202;6.774;2023-04-16T11:44:16;18.90;71.40
29775;DHT22;16676;51.202;6.774;2023-04-16T11:48:18;18.90;71.30
29775;DHT22;16676;51.202;6.774;2023-04-16T11:52:27;18.90;71.40
29775;DHT22;16676;51.202;6.774;2023-04-16T11:56:33;18.90;70.50
29775;DHT22;16676;51.202;6.774;2023-04-16T12:00:35;18.90;70.80
29775;DHT22;16676;51.202;6.774;2023-04-16T12:04:37;18.90;70.00
29775;DHT22;16676;51.202;6.774;2023-04-16T12:08:39;18.90;70.10
29775;DHT22;16676;51.202;6.774;2023-04-16T12:12:42;19.00;69.30
29775;DHT22;16676;51.202;6.774;2023-04-16T12:16:44;19.00;68.70
29775;DHT22;16676;51.202;6.774;2023-04-16T12:20:46;19.10;69.00
29775;DHT22;16676;51.202;6.774;2023-04-16T12:24:48;19.10;68.80
29775;DHT22;16676;51.202;6.774;2023-04-16T12:28:52;19.10;68.80
29775;DHT22;16676;51.202;6.774;2023-04-16T12:33:15;19.00;68.40
29775;DHT22;16676;51.202;6.774;2023-04-16T12:37:17;19.10;68.00
29775;DHT22;16676;51.202;6.774;2023-04-16T12:41:19;19.00;68.00
29775;DHT22;16676;51.202;6.774;2023-04-16T12:45:23;19.10;67.70
29775;DHT22;16676;51.202;6.774;2023-04-16T12:49:25;19.10;67.60
29775;DHT22;16676;51.202;6.774;2023-04-16T12:53:27;19.10;67.60
29775;DHT22;16676;51.202;6.774;2023-04-16T12:57:29;19.00;67.80
29775;DHT22;16676;51.202;6.774;2023-04-16T13:01:32;19.10;67.40
29775;DHT22;16676;51.202;6.774;2023-04-16T13:05:36;19.10;67.40
29775;DHT22;16676;51.202;6.774;2023-04-16T13:09:38;19.10;67.10
29775;DHT22;16676;51.202;6.774;2023-04-16T13:13:40;19.10;67.10
29775;DHT22;16676;51.202;6.774;2023-04-16T13:17:43;19.10;67.10
29775;DHT22;16676;51.202;6.774;2023-04-16T13:21:46;19.10;67.20
29775;DHT22;16676;51.202;6.774;2023-04-16T13:25:47;19.00;67.10
29775;DHT22;16676;51.202;6.774;2023-04-16T13:29:49;19.00;66.90
29775;DHT22;16676;51.202;6.774;2023-04-16T13:33:53;19.00;67.20
29775;DHT22;16676;51.202;6.774;2023-04-16T13:37:55;19.00;66.90
29775;DHT22;16676;51.202;6.774;2023-04-16T13:41:57;19.00;68.30
29775;DHT22;16676;51.202;6.774;2023-04-16T13:45:59;19.00;68.60
29775;DHT22;16676;51.202;6.774;2023-04-16T13:50:03;18.90;68.80
29775;DHT22;16676;51.202;6.774;2023-04-16T13:54:05;18.90;69.00
29775;DHT22;16676;51.202;6.774;2023-04-16T13:58:07;19.00;68.90
29775;DHT22;16676;51.202;6.774;2023-04-16T14:02:10;19.00;68.90
29775;DHT22;16676;51.202;6.774;2023-04-16T14:06:14;19.00;68.70
29775;DHT22;16676;51.202;6.774;2023-04-16T14:10:17;19.00;68.90
29775;DHT22;16676;51.202;6.774;2023-04-16T14:14:19;19.00;69.00
29775;DHT22;16676;51.202;6.774;2023-04-16T14:18:22;19.00;68.90
29775;DHT22;16676;51.202;6.774;2023-04-16T14:22:25;19.00;69.10
29775;DHT22;16676;51.202;6.774;2023-04-16T14:26:27;19.00;69.20
29775;DHT22;16676;51.202;6.774;2023-04-16T14:30:29;19.00;68.80
29775;DHT22;16676;51.202;6.774;2023-04-16T14:34:30;19.10;68.80
29775;DHT22;16676;51.202;6.774;2023-04-16T14:38:34;19.10;68.70
29775;DHT22;16676;51.202;6.774;2023-04-16T14:42:36;19.00;68.60
29775;DHT22;16676;51.202;6.774;2023-04-16T14:46:38;19.10;68.40
29775;DHT22;16676;51.202;6.774;2023-04-16T14:50:40;19.00;68.50
29775;DHT22;16676;51.202;6.774;2023-04-16T14:54:45;19.10;68.40
29775;DHT22;16676;51.202;6.774;2023-04-16T14:58:47;19.10;68.30
29775;DHT22;16676;51.202;6.774;2023-04-16T15:02:49;19.10;68.20
29775;DHT22;16676;51.202;6.774;2023-04-16T15:06:51;19.10;68.00
29775;DHT22;16676;51.202;6.774;2023-04-16T15:10:54;19.10;68.20
29775;DHT22;16676;51.202;6.774;2023-04-16T15:14:56;19.00;68.30
29775;DHT22;16676;51.202;6.774;2023-04-16T15:18:59;19.10;68.40
29775;DHT22;16676;51.202;6.774;2023-04-16T15:23:01;19.10;68.30
29775;DHT22;16676;51.202;6.774;2023-04-16T15:27:04;19.10;68.10
29775;DHT22;16676;51.202;6.774;2023-04-16T15:31:07;19.20;67.60
29775;DHT22;16676;51.202;6.774;2023-04-16T15:35:09;19.20;67.90
29775;DHT22;16676;51.202;6.774;2023-04-16T15:39:11;19.10;68.40
29775;DHT22;16676;51.202;6.774;2023-04-16T15:43:14;19.10;68.60
29775;DHT22;16676;51.202;6.774;2023-04-16T15:47:16;19.10;68.90
29775;DHT22;16676;51.202;6.774;2023-04-16T15:51:18;19.10;68.10
29775;DHT22;16676;51.202;6.774;2023-04-16T15:55:20;19.20;67.00
29775;DHT22;16676;51.202;6.774;2023-04-16T15:59:23;19.20;67.10
29775;DHT22;16676;51.202;6.774;2023-04-16T16:03:25;19.20;67.20
29775;DHT22;16676;51.202;6.774;2023-04-16T16:07:27;19.20;65.80
29775;DHT22;16676;51.202;6.774;2023-04-16T16:11:31;19.20;65.80
29775;DHT22;16676;51.202;6.774;2023-04-16T16:15:34;19.20;65.10
29775;DHT22;16676;51.202;6.774;2023-04-16T16:19:36;19.10;65.10
29775;DHT22;16676;51.202;6.774;2023-04-16T16:23:38;19.00;62.80
29775;DHT22;16676;51.202;6.774;2023-04-16T16:27:40;19.10;63.40
29775;DHT22;16676;51.202;6.774;2023-04-16T16:31:43;19.00;62.30
29775;DHT22;16676;51.202;6.774;2023-04-16T16:35:45;19.00;63.20
29775;DHT22;16676;51.202;6.774;2023-04-16T16:39:47;19.00;63.00
29775;DHT22;16676;51.202;6.774;2023-04-16T16:43:49;19.00;62.70
29775;DHT22;16676;51.202;6.774;2023-04-16T16:47:57;19.00;62.90
29775;DHT22;16676;51.202;6.774;2023-04-16T16:51:59;18.90;62.60
29775;DHT22;16676;51.202;6.774;2023-04-16T16:56:01;18.90;63.10
29775;DHT22;16676;51.202;6.774;2023-04-16T17:00:04;18.90;63.20
29775;DHT22;16676;51.202;6.774;2023-04-16T17:04:12;18.80;63.30
29775;DHT22;16676;51.202;6.774;2023-04-16T17:08:13;18.80;64.40
29775;DHT22;16676;51.202;6.774;2023-04-16T17:12:15;18.90;66.20
29775;DHT22;16676;51.202;6.774;2023-04-16T17:16:17;18.80;67.20
29775;DHT22;16676;51.202;6.774;2023-04-16T17:20:21;18.90;67.10
29775;DHT22;16676;51.202;6.774;2023-04-16T17:24:23;18.90;66.90
29775;DHT22;16676;51.202;6.774;2023-04-16T17:28:25;19.00;67.90
29775;DHT22;16676;51.202;6.774;2023-04-16T17:32:27;19.00;68.00
29775;DHT22;16676;51.202;6.774;2023-04-16T17:36:33;19.00;68.10
29775;DHT22;16676;51.202;6.774;2023-04-16T17:40:35;19.00;69.30
29775;DHT22;16676;51.202;6.774;2023-04-16T17:44:36;19.00;69.30
29775;DHT22;16676;51.202;6.774;2023-04-16T17:48:38;19.00;68.70
29775;DHT22;16676;51.202;6.774;2023-04-16T17:52:42;19.10;68.00
29775;DHT22;16676;51.202;6.774;2023-04-16T17:56:44;19.10;69.40
29775;DHT22;16676;51.202;6.774;2023-04-16T18:00:46;19.20;69.30
29775;DHT22;16676;51.202;6.774;2023-04-16T18:04:48;19.20;69.90
29775;DHT22;16676;51.202;6.774;2023-04-16T18:08:52;19.10;70.20
29775;DHT22;16676;51.202;6.774;2023-04-16T18:12:54;19.10;69.10
29775;DHT22;16676;51.202;6.774;2023-04-16T18:16:56;19.20;69.30
29775;DHT22;16676;51.202;6.774;2023-04-16T18:20:57;19.20;70.20
29775;DHT22;16676;51.202;6.774;2023-04-16T18:25:01;19.20;70.50
29775;DHT22;16676;51.202;6.774;2023-04-16T18:29:03;19.10;69.90
29775;DHT22;16676;51.202;6.774;2023-04-16T18:33:05;19.10;69.00
29775;DHT22;16676;51.202;6.774;2023-04-16T18:37:07;19.10;69.60
29775;DHT22;16676;51.202;6.774;2023-04-16T18:41:16;19.10;69.30
29775;DHT22;16676;51.202;6.774;2023-04-16T18:45:18;19.10;69.70
29775;DHT22;16676;51.202;6.774;2023-04-16T18:49:20;19.10;69.90
29775;DHT22;16676;51.202;6.774;2023-04-16T18:53:22;19.10;69.40
29775;DHT22;16676;51.202;6.774;2023-04-16T18:57:25;19.00;69.30
29775;DHT22;16676;51.202;6.774;2023-04-16T19:01:27;19.00;69.20
29775;DHT22;16676;51.202;6.774;2023-04-16T19:05:29;19.00;69.80
29775;DHT22;16676;51.202;6.774;2023-04-16T19:09:30;19.00;69.80
29775;DHT22;16676;51.202;6.774;2023-04-16T19:13:34;19.00;69.90
29775;DHT22;16676;51.202;6.774;2023-04-16T19:17:36;19.00;69.60
29775;DHT22;16676;51.202;6.774;2023-04-16T19:21:39;19.00;69.80
29775;DHT22;16676;51.202;6.774;2023-04-16T19:25:41;19.00;69.70
29775;DHT22;16676;51.202;6.774;2023-04-16T19:29:44;18.90;69.50
29775;DHT22;16676;51.202;6.774;2023-04-16T19:33:46;18.90;69.40
29775;DHT22;16676;51.202;6.774;2023-04-16T19:37:49;18.90;69.80
29775;DHT22;16676;51.202;6.774;2023-04-16T19:41:51;18.90;69.50
29775;DHT22;16676;51.202;6.774;2023-04-16T19:45:54;18.90;69.00
29775;DHT22;16676;51.202;6.774;2023-04-16T19:49:56;18.90;69.30
29775;DHT22;16676;51.202;6.774;2023-04-16T19:53:58;19.00;70.20
29775;DHT22;16676;51.202;6.774;2023-04-16T19:58:01;19.00;71.90
29775;DHT22;16676;51.202;6.774;2023-04-16T20:02:07;19.10;72.40
29775;DHT22;16676;51.202;6.774;2023-04-16T20:06:09;19.10;72.10
29775;DHT22;16676;51.202;6.774;2023-04-16T20:10:11;19.10;71.90
29775;DHT22;16676;51.202;6.774;2023-04-16T20:14:13;19.10;71.90
29775;DHT22;16676;51.202;6.774;2023-04-16T20:18:16;19.20;71.70
29775;DHT22;16676;51.202;6.774;2023-04-16T20:22:19;19.20;71.70
29775;DHT22;16676;51.202;6.774;2023-04-16T20:26:20;19.20;71.70
29775;DHT22;16676;51.202;6.774;2023-04-16T20:30:23;19.20;71.80
29775;DHT22;16676;51.202;6.774;2023-04-16T20:34:30;19.20;71.70
29775;DHT22;16676;51.202;6.774;2023-04-16T20:38:32;19.20;71.80
29775;DHT22;16676;51.202;6.774;2023-04-16T20:42:35;19.20;71.70
29775;DHT22;16676;51.202;6.774;2023-04-16T20:46:36;19.20;71.90
29775;DHT22;16676;51.202;6.774;2023-04-16T20:50:40;19.20;72.10
29775;DHT22;16676;51.202;6.774;2023-04-16T20:54:42;19.20;71.90
29775;DHT22;16676;51.202;6.774;2023-04-16T20:58:44;19.20;71.70
29775;DHT22;16676;51.202;6.774;2023-04-16T21:02:46;19.20;71.80
29775;DHT22;16676;51.202;6.774;2023-04-16T21:06:49;19.20;72.10
29775;DHT22;16676;51.202;6.774;2023-04-16T21:10:53;19.20;72.20
29775;DHT22;16676;51.202;6.774;2023-04-16T21:14:55;19.20;72.30
29775;DHT22;16676;51.202;6.774;2023-04-16T21:18:57;19.20;72.40
29775;DHT22;16676;51.202;6.774;2023-04-16T21:23:01;19.10;72.60
29775;DHT22;16676;51.202;6.774;2023-04-16T21:27:03;19.10;72.80
29775;DHT22;16676;51.202;6.774;2023-04-16T21:31:05;19.10;72.80
29775;DHT22;16676;51.202;6.774;2023-04-16T21:35:07;19.00;72.90
29775;DHT22;16676;51.202;6.774;2023-04-16T21:39:11;19.10;73.00
29775;DHT22;16676;51.202;6.774;2023-04-16T21:43:13;19.10;73.00
29775;DHT22;16676;51.202;6.774;2023-04-16T21:47:15;19.00;72.80
29775;DHT22;16676;51.202;6.774;2023-04-16T21:51:17;19.00;72.80
29775;DHT22;16676;51.202;6.774;2023-04-16T21:55:21;19.10;72.70
29775;DHT22;16676;51.202;6.774;2023-04-16T21:59:23;19.10;72.40
29775;DHT22;16676;51.202;6.774;2023-04-16T22:03:25;19.10;72.50
29775;DHT22;16676;51.202;6.774;2023-04-16T22:07:29;19.10;72.60
29775;DHT22;16676;51.202;6.774;2023-04-16T22:11:32;19.10;72.20
29775;DHT22;16676;51.202;6.774;2023-04-16T22:15:35;19.10;72.40
29775;DHT22;16676;51.202;6.774;2023-04-16T22:19:36;19.00;72.30
29775;DHT22;16676;51.202;6.774;2023-04-16T22:23:39;19.10;71.80
29775;DHT22;16676;51.202;6.774;2023-04-16T22:27:42;19.10;72.40
29775;DHT22;16676;51.202;6.774;2023-04-16T22:31:44;19.00;72.50
29775;DHT22;16676;51.202;6.774;2023-04-16T22:35:46;19.00;72.50
29775;DHT22;16676;51.202;6.774;2023-04-16T22:39:48;19.00;72.10
29775;DHT22;16676;51.202;6.774;2023-04-16T22:43:51;19.00;71.50
29775;DHT22;16676;51.202;6.774;2023-04-16T22:47:53;19.10;71.80
29775;DHT22;16676;51.202;6.774;2023-04-16T22:51:55;19.10;71.60
29775;DHT22;16676;51.202;6.774;2023-04-16T22:55:57;19.10;72.10
29775;DHT22;16676;51.202;6.774;2023-04-16T23:00:00;19.10;72.30
29775;DHT22;16676;51.202;6.774;2023-04-16T23:04:06;19.10;72.50
29775;DHT22;16676;51.202;6.774;2023-04-16T23:08:08;19.00;72.00
29775;DHT22;16676;51.202;6.774;2023-04-16T23:12:10;19.00;72.20
29775;DHT22;16676;51.202;6.774;2023-04-16T23:16:13;19.00;72.20
29775;DHT22;16676;51.202;6.774;2023-04-16T23:20:15;19.00;71.70
29775;DHT22;16676;51.202;6.774;2023-04-16T23:24:17;19.00;72.00
29775;DHT22;16676;51.202;6.774;2023-04-16T23:28:20;19.00;71.80
29775;DHT22;16676;51.202;6.774;2023-04-16T23:32:23;19.00;71.50
29775;DHT22;16676;51.202;6.774;2023-04-16T23:36:25;19.00;73.00
29775;DHT22;16676;51.202;6.774;2023-04-16T23:40:27;19.00;71.70
29775;DHT22;16676;51.202;6.774;2023-04-16T23:44:29;19.00;72.50
29775;DHT22;16676;51.202;6.774;2023-04-16T23:48:32;19.00;72.10
29775;DHT22;16676;51.202;6.774;2023-04-16T23:52:34;18.90;71.70
29775;DHT22;16676;51.202;6.774;2023-04-16T23:56:36;19.00;71.60
